York, Wisconsin
Current Conditions -  °F | °C
As of 3:54 PM on Friday 24 Oct 2014 (Local Time) from KMFI Reporting Station
Broken Clouds Broken Clouds  
Wind Chill: 57°   Ceiling: 6500
Heat Index: 57°   Visibility: 10mi
Dew Point: 50°   Wind: 9mph
Humidity: 77%   Direction: 160°SSE
Pressure: 29.87"   Gusts: NA
Location:  44.5388°N, 90.4382°W
Report Text: KMFI 242054Z AUTO 16008KT 10SM SCT050 BKN065 BKN090 14/10 A2987 RMK AO2 SLP120 T01390100 56023
Loading
Personal Weather Stations






























Interactive Weather Map
Tropical Storm Tracking
New forecast layout! Learn more

10-Day Weather Forecast

Advertisements
Track Severe Weather on mobile